createdAt,value
2024-02-13T00:01:48.899Z,100.00
2024-02-13T00:07:02.224Z,100.00
2024-02-13T00:12:08.341Z,100.00
2024-02-13T00:17:17.524Z,100.00
2024-02-13T00:22:34.374Z,100.00
2024-02-13T00:27:41.514Z,100.00
2024-02-13T00:32:49.236Z,100.00
2024-02-13T00:37:57.236Z,100.00
2024-02-13T00:43:02.759Z,100.00
2024-02-13T00:48:11.837Z,100.00
2024-02-13T00:53:20.333Z,100.00
2024-02-13T00:58:25.506Z,100.00
2024-02-13T01:03:30.966Z,100.00
2024-02-13T01:08:40.214Z,100.00
2024-02-13T01:13:45.331Z,100.00
2024-02-13T01:18:53.609Z,100.00
2024-02-13T01:24:04.081Z,100.00
2024-02-13T01:29:10.405Z,100.00
2024-02-13T01:34:15.896Z,100.00
2024-02-13T01:39:25.713Z,100.00
2024-02-13T01:44:31.107Z,100.00
2024-02-13T01:49:38.862Z,100.00
2024-02-13T01:54:48.057Z,100.00
2024-02-13T01:59:53.509Z,100.00
2024-02-13T02:05:00.672Z,100.00
2024-02-13T02:10:11.870Z,100.00
2024-02-13T02:15:18.122Z,100.00
2024-02-13T02:20:23.994Z,100.00
2024-02-13T02:25:35.434Z,100.00
2024-02-13T02:30:43.911Z,100.00
2024-02-13T02:35:57.320Z,100.00
2024-02-13T02:41:13.621Z,100.00
2024-02-13T02:46:23.653Z,100.00
2024-02-13T02:51:30.017Z,100.00
2024-02-13T02:56:38.966Z,100.00
2024-02-13T03:01:44.351Z,100.00
2024-02-13T03:06:49.586Z,100.00
2024-02-13T03:11:57.698Z,100.00
2024-02-13T03:17:03.376Z,100.00
2024-02-13T03:22:10.337Z,100.00
2024-02-13T03:27:18.712Z,100.00
2024-02-13T03:32:24.094Z,100.00
2024-02-13T03:37:29.357Z,100.00
2024-02-13T03:42:37.773Z,100.00
2024-02-13T03:47:43.393Z,100.00
2024-02-13T03:52:49.104Z,100.00
2024-02-13T03:57:59.153Z,100.00
2024-02-13T04:03:04.708Z,100.00
2024-02-13T04:08:10.920Z,100.00
2024-02-13T04:13:19.372Z,100.00
2024-02-13T04:18:25.154Z,100.00
2024-02-13T04:23:31.553Z,100.00
2024-02-13T04:28:41.222Z,100.00
2024-02-13T04:33:47.227Z,100.00
2024-02-13T04:38:52.879Z,100.00
2024-02-13T04:44:01.236Z,100.00
2024-02-13T04:49:07.104Z,100.00
2024-02-13T04:54:12.730Z,100.00
2024-02-13T04:59:22.910Z,100.00
2024-02-13T05:04:40.763Z,100.00
2024-02-13T05:09:46.664Z,100.00
2024-02-13T05:14:54.833Z,100.00
2024-02-13T05:20:01.504Z,100.00
2024-02-13T05:25:09.766Z,100.00
2024-02-13T05:30:19.830Z,100.00
2024-02-13T05:35:26.667Z,100.00
2024-02-13T05:40:32.215Z,100.00
2024-02-13T05:45:40.851Z,100.00
2024-02-13T05:50:46.390Z,100.00
2024-02-13T05:55:55.760Z,100.00
2024-02-13T06:01:08.963Z,100.00
2024-02-13T06:06:17.542Z,100.00
2024-02-13T06:11:33.219Z,100.00
2024-02-13T06:16:41.497Z,100.00
2024-02-13T06:21:46.988Z,100.00
2024-02-13T06:26:55.096Z,100.00
2024-02-13T06:32:08.273Z,100.00
2024-02-13T06:37:15.221Z,100.00
2024-02-13T06:42:20.640Z,100.00
2024-02-13T06:47:35.366Z,100.00
2024-02-13T06:52:42.931Z,100.00
2024-02-13T06:57:49.181Z,100.00
2024-02-13T07:03:11.262Z,100.00
2024-02-13T07:08:17.754Z,100.00
2024-02-13T07:13:50.734Z,100.00
2024-02-13T07:19:03.147Z,100.00
2024-02-13T07:24:10.598Z,100.00
2024-02-13T07:29:23.983Z,100.00
2024-02-13T07:34:38.570Z,100.00
2024-02-13T07:39:44.509Z,100.00
2024-02-13T07:44:52.631Z,100.00
2024-02-13T07:50:01.430Z,100.00
2024-02-13T07:55:07.519Z,100.00
2024-02-13T08:00:16.638Z,100.00
2024-02-13T08:05:24.843Z,100.00
2024-02-13T08:10:34.161Z,100.00
2024-02-13T08:16:14.862Z,100.00
2024-02-13T08:21:28.447Z,100.00
2024-02-13T08:26:33.967Z,100.00
2024-02-13T08:31:47.240Z,100.00
2024-02-13T08:37:01.148Z,100.00
2024-02-13T08:42:09.316Z,100.00
2024-02-13T08:47:16.557Z,100.00
2024-02-13T08:52:26.964Z,100.00
2024-02-13T08:57:34.872Z,100.00
2024-02-13T09:02:51.342Z,100.00
2024-02-13T09:08:11.355Z,100.00
2024-02-13T09:13:18.713Z,98.83
2024-02-13T09:18:27.887Z,99.56
2024-02-13T09:23:36.948Z,95.70
2024-02-13T09:28:55.180Z,95.67
2024-02-13T09:34:09.812Z,95.30
2024-02-13T09:39:18.852Z,92.10
2024-02-13T09:44:24.911Z,85.59
2024-02-13T09:49:38.108Z,88.90
2024-02-13T09:54:52.170Z,87.83
2024-02-13T10:00:02.819Z,90.95
2024-02-13T10:05:12.180Z,91.36
2024-02-13T10:10:20.812Z,87.58
2024-02-13T10:15:43.902Z,92.47
2024-02-13T10:20:50.424Z,87.29
2024-02-13T10:25:58.324Z,86.19
2024-02-13T10:31:03.563Z,89.83
2024-02-13T10:36:10.023Z,89.46
2024-02-13T10:41:24.965Z,90.09
2024-02-13T10:46:43.676Z,90.89
2024-02-13T10:52:03.418Z,82.02
2024-02-13T11:03:06.666Z,84.44
2024-02-13T11:08:20.962Z,82.12
2024-02-13T11:13:33.567Z,74.34
2024-02-13T11:18:47.729Z,73.42
2024-02-13T11:24:02.660Z,69.97
2024-02-13T11:29:25.240Z,72.03
2024-02-13T11:34:46.254Z,72.04
2024-02-13T11:45:27.906Z,71.90
2024-02-13T11:50:37.523Z,76.74
2024-02-13T11:55:44.463Z,73.99
2024-02-13T12:01:06.188Z,73.85
2024-02-13T12:06:11.572Z,73.93
2024-02-13T12:11:19.489Z,73.01
2024-02-13T12:16:29.797Z,72.03
2024-02-13T12:21:34.877Z,71.50
2024-02-13T12:26:41.026Z,74.98
2024-02-13T12:32:02.489Z,73.43
2024-02-13T12:37:13.012Z,72.09
2024-02-13T12:42:19.045Z,71.19
2024-02-13T12:47:27.117Z,68.02
2024-02-13T12:52:33.245Z,66.64
2024-02-13T12:57:38.273Z,68.33
2024-02-13T13:02:46.122Z,68.51
2024-02-13T13:07:52.710Z,69.92
2024-02-13T13:12:58.993Z,69.53
2024-02-13T13:18:12.787Z,72.18
2024-02-13T13:23:22.695Z,70.03
2024-02-13T13:28:30.301Z,65.12
2024-02-13T13:33:40.741Z,65.39
2024-02-13T13:38:47.536Z,63.91
2024-02-13T13:43:52.651Z,63.19
2024-02-13T13:49:09.400Z,64.84
2024-02-13T13:54:16.691Z,65.67
2024-02-13T13:59:23.549Z,66.90
2024-02-13T14:04:32.943Z,67.55
2024-02-13T14:09:38.533Z,69.61
2024-02-13T14:14:43.899Z,67.46
2024-02-13T14:19:56.455Z,67.61
2024-02-13T14:25:04.988Z,68.85
2024-02-13T14:30:12.072Z,68.20
2024-02-13T14:35:39.873Z,69.08
2024-02-13T14:40:50.540Z,68.98
2024-02-13T14:46:00.146Z,69.55
2024-02-13T14:51:08.438Z,69.26
2024-02-13T14:56:14.781Z,69.05
2024-02-13T15:01:20.124Z,68.72
2024-02-13T15:06:33.052Z,68.67
2024-02-13T15:11:39.761Z,67.58
2024-02-13T15:16:49.846Z,69.80
2024-02-13T15:21:57.650Z,70.38
2024-02-13T15:27:07.319Z,71.34
2024-02-13T15:32:15.663Z,71.57
2024-02-13T15:37:50.588Z,72.48
2024-02-13T15:43:13.744Z,71.95
2024-02-13T15:48:21.129Z,73.40
2024-02-13T15:53:32.312Z,73.55
2024-02-13T15:58:38.518Z,73.18
2024-02-13T16:03:44.664Z,72.30
2024-02-13T16:08:54.839Z,73.42
2024-02-13T16:14:10.138Z,74.41
2024-02-13T16:19:16.049Z,73.88
2024-02-13T16:24:23.970Z,75.62
2024-02-13T16:29:29.107Z,76.31
2024-02-13T16:34:38.814Z,76.70
2024-02-13T16:39:49.118Z,76.81
2024-02-13T16:44:56.663Z,77.92
2024-02-13T16:50:03.244Z,79.67
2024-02-13T16:55:12.184Z,81.54
2024-02-13T17:00:20.745Z,81.66
2024-02-13T17:05:26.479Z,82.57
2024-02-13T17:10:34.938Z,82.49
2024-02-13T17:15:40.233Z,81.97
2024-02-13T17:20:45.973Z,84.73
2024-02-13T17:25:57.307Z,87.53
2024-02-13T17:31:02.470Z,86.68
2024-02-13T17:36:13.222Z,86.18
2024-02-13T17:41:28.852Z,86.39
2024-02-13T17:46:34.028Z,89.30
2024-02-13T17:51:42.015Z,89.37
2024-02-13T17:56:54.025Z,88.86
2024-02-13T18:01:59.960Z,88.27
2024-02-13T18:07:05.596Z,87.92
2024-02-13T18:12:13.606Z,89.32
2024-02-13T18:17:21.993Z,89.55
2024-02-13T18:22:27.240Z,93.02
2024-02-13T18:27:34.858Z,97.37
2024-02-13T18:32:42.758Z,93.73
2024-02-13T18:37:48.124Z,90.53
2024-02-13T18:42:56.614Z,89.54
2024-02-13T18:48:02.732Z,88.94
2024-02-13T18:53:12.822Z,93.48
2024-02-13T18:58:21.638Z,91.31
2024-02-13T19:03:32.071Z,93.27
2024-02-13T19:08:48.966Z,91.77
2024-02-13T19:14:00.648Z,91.97
2024-02-13T19:19:09.125Z,91.95
2024-02-13T19:24:29.169Z,92.17
2024-02-13T19:29:40.521Z,99.00
2024-02-13T19:34:46.272Z,93.93
2024-02-13T19:39:54.052Z,94.58
2024-02-13T19:45:07.952Z,94.26
2024-02-13T19:55:38.722Z,97.61
2024-02-13T20:00:47.147Z,97.66
2024-02-13T20:05:54.449Z,97.15
2024-02-13T20:11:03.313Z,97.31
2024-02-13T20:16:12.718Z,97.89
2024-02-13T20:21:22.687Z,97.96
2024-02-13T20:26:28.313Z,96.93
2024-02-13T20:31:36.866Z,96.40
2024-02-13T20:36:42.558Z,96.74
2024-02-13T20:41:48.995Z,97.77
2024-02-13T20:46:58.031Z,96.34
2024-02-13T20:52:03.236Z,96.08
2024-02-13T20:57:10.306Z,96.08
2024-02-13T21:02:18.711Z,96.79
2024-02-13T21:07:26.444Z,95.94
2024-02-13T21:12:32.338Z,96.32
2024-02-13T21:17:46.991Z,96.24
2024-02-13T21:23:11.160Z,96.99
2024-02-13T21:28:16.340Z,99.09
2024-02-13T21:33:27.656Z,98.89
2024-02-13T21:38:36.095Z,97.65
2024-02-13T21:43:41.394Z,98.18
2024-02-13T21:48:50.893Z,98.05
2024-02-13T21:53:56.307Z,99.29
2024-02-13T21:59:06.163Z,98.86
2024-02-13T22:04:16.318Z,98.70
2024-02-13T22:09:23.831Z,98.65
2024-02-13T22:14:29.479Z,100.00
2024-02-13T22:19:37.548Z,100.00
2024-02-13T22:24:42.639Z,100.00
2024-02-13T22:29:50.147Z,100.00
2024-02-13T22:34:59.014Z,100.00
2024-02-13T22:40:04.563Z,100.00
2024-02-13T22:45:12.072Z,100.00
2024-02-13T22:50:21.883Z,100.00
2024-02-13T22:55:27.047Z,100.00
2024-02-13T23:00:50.742Z,100.00
2024-02-13T23:06:00.703Z,100.00
2024-02-13T23:11:08.821Z,100.00
2024-02-13T23:16:14.580Z,100.00
2024-02-13T23:21:22.997Z,100.00
2024-02-13T23:26:28.158Z,100.00
2024-02-13T23:31:34.227Z,100.00
2024-02-13T23:36:41.840Z,100.00
2024-02-13T23:41:47.325Z,100.00
2024-02-13T23:46:57.150Z,100.00
2024-02-13T23:52:04.845Z,100.00
2024-02-13T23:57:10.947Z,100.00
